sensor_id;sensor_type;location;lat;lon;timestamp;temperature;humidity
16503;DHT22;53067;48.114;11.694;2022-12-18T00:01:22;-1.40;81.60
16503;DHT22;53067;48.114;11.694;2022-12-18T00:03:51;-1.40;81.90
16503;DHT22;53067;48.114;11.694;2022-12-18T00:06:19;-1.30;81.50
16503;DHT22;53067;48.114;11.694;2022-12-18T00:08:47;-1.40;81.60
16503;DHT22;53067;48.114;11.694;2022-12-18T00:11:17;-1.40;81.50
16503;DHT22;53067;48.114;11.694;2022-12-18T00:13:45;-1.40;81.70
16503;DHT22;53067;48.114;11.694;2022-12-18T00:16:15;-1.50;81.70
16503;DHT22;53067;48.114;11.694;2022-12-18T00:18:44;-1.50;81.90
16503;DHT22;53067;48.114;11.694;2022-12-18T00:21:13;-1.40;81.80
16503;DHT22;53067;48.114;11.694;2022-12-18T00:23:43;-1.40;81.70
16503;DHT22;53067;48.114;11.694;2022-12-18T00:26:13;-1.50;81.70
16503;DHT22;53067;48.114;11.694;2022-12-18T00:28:42;-1.50;81.80
16503;DHT22;53067;48.114;11.694;2022-12-18T00:31:13;-1.50;81.80
16503;DHT22;53067;48.114;11.694;2022-12-18T00:33:40;-1.50;81.70
16503;DHT22;53067;48.114;11.694;2022-12-18T00:36:10;-1.70;82.20
16503;DHT22;53067;48.114;11.694;2022-12-18T00:38:39;-1.50;81.80
16503;DHT22;53067;48.114;11.694;2022-12-18T00:41:08;-1.50;81.60
16503;DHT22;53067;48.114;11.694;2022-12-18T00:43:37;-1.60;81.60
16503;DHT22;53067;48.114;11.694;2022-12-18T00:46:06;-1.60;81.70
16503;DHT22;53067;48.114;11.694;2022-12-18T00:48:33;-1.60;81.70
16503;DHT22;53067;48.114;11.694;2022-12-18T00:51:01;-1.70;81.70
16503;DHT22;53067;48.114;11.694;2022-12-18T00:53:28;-1.60;81.80
16503;DHT22;53067;48.114;11.694;2022-12-18T00:55:56;-1.60;81.60
16503;DHT22;53067;48.114;11.694;2022-12-18T00:58:23;-1.60;81.50
16503;DHT22;53067;48.114;11.694;2022-12-18T01:00:51;-1.70;81.50
16503;DHT22;53067;48.114;11.694;2022-12-18T01:03:18;-1.70;81.60
16503;DHT22;53067;48.114;11.694;2022-12-18T01:05:46;-1.70;81.90
16503;DHT22;53067;48.114;11.694;2022-12-18T01:08:14;-1.70;82.00
16503;DHT22;53067;48.114;11.694;2022-12-18T01:10:41;-1.70;82.20
16503;DHT22;53067;48.114;11.694;2022-12-18T01:13:09;-1.70;82.10
16503;DHT22;53067;48.114;11.694;2022-12-18T01:15:36;-1.70;82.10
16503;DHT22;53067;48.114;11.694;2022-12-18T01:18:04;-1.70;81.80
16503;DHT22;53067;48.114;11.694;2022-12-18T01:20:31;-1.70;81.70
16503;DHT22;53067;48.114;11.694;2022-12-18T01:22:59;-1.60;81.70
16503;DHT22;53067;48.114;11.694;2022-12-18T01:25:26;-1.60;81.70
16503;DHT22;53067;48.114;11.694;2022-12-18T01:27:54;-1.60;81.70
16503;DHT22;53067;48.114;11.694;2022-12-18T01:30:21;-1.60;81.60
16503;DHT22;53067;48.114;11.694;2022-12-18T01:32:49;-1.60;81.60
16503;DHT22;53067;48.114;11.694;2022-12-18T01:35:16;-1.60;81.50
16503;DHT22;53067;48.114;11.694;2022-12-18T01:37:44;-1.50;81.40
16503;DHT22;53067;48.114;11.694;2022-12-18T01:40:12;-1.50;81.40
16503;DHT22;53067;48.114;11.694;2022-12-18T01:42:40;-1.50;81.50
16503;DHT22;53067;48.114;11.694;2022-12-18T01:47:48;-1.50;81.40
16503;DHT22;53067;48.114;11.694;2022-12-18T01:52:53;-1.50;81.50
16503;DHT22;53067;48.114;11.694;2022-12-18T01:55:23;-1.50;81.40
16503;DHT22;53067;48.114;11.694;2022-12-18T01:57:53;-1.50;81.50
16503;DHT22;53067;48.114;11.694;2022-12-18T02:00:22;-1.50;81.50
16503;DHT22;53067;48.114;11.694;2022-12-18T02:02:50;-1.50;81.40
16503;DHT22;53067;48.114;11.694;2022-12-18T02:05:28;-1.50;81.40
16503;DHT22;53067;48.114;11.694;2022-12-18T02:08:24;-1.50;81.30
16503;DHT22;53067;48.114;11.694;2022-12-18T02:11:15;-1.50;81.30
16503;DHT22;53067;48.114;11.694;2022-12-18T02:19:08;-1.60;81.80
16503;DHT22;53067;48.114;11.694;2022-12-18T02:24:17;-1.60;81.80
16503;DHT22;53067;48.114;11.694;2022-12-18T02:26:47;-1.60;81.70
16503;DHT22;53067;48.114;11.694;2022-12-18T02:29:17;-1.70;81.70
16503;DHT22;53067;48.114;11.694;2022-12-18T02:31:53;-1.60;81.70
16503;DHT22;53067;48.114;11.694;2022-12-18T02:34:17;-1.60;81.80
16503;DHT22;53067;48.114;11.694;2022-12-18T02:36:46;-1.70;81.80
16503;DHT22;53067;48.114;11.694;2022-12-18T02:39:16;-1.60;81.80
16503;DHT22;53067;48.114;11.694;2022-12-18T02:41:44;-1.60;81.80
16503;DHT22;53067;48.114;11.694;2022-12-18T02:44:13;-1.60;81.70
16503;DHT22;53067;48.114;11.694;2022-12-18T02:46:44;-1.60;81.80
16503;DHT22;53067;48.114;11.694;2022-12-18T02:49:34;-1.70;81.90
16503;DHT22;53067;48.114;11.694;2022-12-18T02:52:38;-1.60;82.00
16503;DHT22;53067;48.114;11.694;2022-12-18T02:57:54;-1.70;81.80
16503;DHT22;53067;48.114;11.694;2022-12-18T03:00:48;-1.70;81.80
16503;DHT22;53067;48.114;11.694;2022-12-18T03:03:19;-1.70;81.80
16503;DHT22;53067;48.114;11.694;2022-12-18T03:06:05;-1.70;81.80
16503;DHT22;53067;48.114;11.694;2022-12-18T03:08:41;-1.70;82.00
16503;DHT22;53067;48.114;11.694;2022-12-18T03:11:07;-1.70;81.80
16503;DHT22;53067;48.114;11.694;2022-12-18T03:16:11;-1.60;81.80
16503;DHT22;53067;48.114;11.694;2022-12-18T03:18:51;-1.60;81.80
16503;DHT22;53067;48.114;11.694;2022-12-18T03:21:21;-1.60;82.40
16503;DHT22;53067;48.114;11.694;2022-12-18T03:23:50;-1.60;81.70
16503;DHT22;53067;48.114;11.694;2022-12-18T03:26:22;-1.60;81.70
16503;DHT22;53067;48.114;11.694;2022-12-18T03:28:57;-1.60;81.60
16503;DHT22;53067;48.114;11.694;2022-12-18T03:31:23;-1.60;81.60
16503;DHT22;53067;48.114;11.694;2022-12-18T03:33:55;-1.60;81.50
16503;DHT22;53067;48.114;11.694;2022-12-18T03:36:24;-1.50;81.60
16503;DHT22;53067;48.114;11.694;2022-12-18T03:38:52;-1.50;81.30
16503;DHT22;53067;48.114;11.694;2022-12-18T03:44:23;-1.60;81.30
16503;DHT22;53067;48.114;11.694;2022-12-18T03:47:30;-1.60;81.30
16503;DHT22;53067;48.114;11.694;2022-12-18T03:50:02;-1.60;81.50
16503;DHT22;53067;48.114;11.694;2022-12-18T03:52:47;-1.60;81.40
16503;DHT22;53067;48.114;11.694;2022-12-18T03:55:14;-1.60;81.40
16503;DHT22;53067;48.114;11.694;2022-12-18T03:57:43;-1.60;81.50
16503;DHT22;53067;48.114;11.694;2022-12-18T04:00:13;-1.60;81.50
16503;DHT22;53067;48.114;11.694;2022-12-18T04:02:44;-1.60;81.30
16503;DHT22;53067;48.114;11.694;2022-12-18T04:05:12;-1.60;81.30
16503;DHT22;53067;48.114;11.694;2022-12-18T04:07:42;-1.60;81.40
16503;DHT22;53067;48.114;11.694;2022-12-18T04:10:11;-1.60;81.40
16503;DHT22;53067;48.114;11.694;2022-12-18T04:12:39;-1.50;81.50
16503;DHT22;53067;48.114;11.694;2022-12-18T04:15:08;-1.50;81.30
16503;DHT22;53067;48.114;11.694;2022-12-18T04:17:37;-1.50;81.20
16503;DHT22;53067;48.114;11.694;2022-12-18T04:20:05;-1.50;81.10
16503;DHT22;53067;48.114;11.694;2022-12-18T04:22:33;-1.50;80.80
16503;DHT22;53067;48.114;11.694;2022-12-18T04:25:00;-1.50;81.20
16503;DHT22;53067;48.114;11.694;2022-12-18T04:27:28;-1.50;81.10
16503;DHT22;53067;48.114;11.694;2022-12-18T04:29:55;-1.60;81.10
16503;DHT22;53067;48.114;11.694;2022-12-18T04:32:23;-1.60;81.30
16503;DHT22;53067;48.114;11.694;2022-12-18T04:34:50;-1.50;81.40
16503;DHT22;53067;48.114;11.694;2022-12-18T04:37:18;-1.50;81.30
16503;DHT22;53067;48.114;11.694;2022-12-18T04:39:45;-1.50;81.00
16503;DHT22;53067;48.114;11.694;2022-12-18T04:42:13;-1.60;81.10
16503;DHT22;53067;48.114;11.694;2022-12-18T04:44:40;-1.60;81.20
16503;DHT22;53067;48.114;11.694;2022-12-18T04:47:08;-1.60;81.40
16503;DHT22;53067;48.114;11.694;2022-12-18T04:49:35;-1.60;81.40
16503;DHT22;53067;48.114;11.694;2022-12-18T04:52:03;-1.60;81.90
16503;DHT22;53067;48.114;11.694;2022-12-18T04:54:31;-1.60;81.50
16503;DHT22;53067;48.114;11.694;2022-12-18T04:56:58;-1.50;81.50
16503;DHT22;53067;48.114;11.694;2022-12-18T04:59:26;-1.50;81.40
16503;DHT22;53067;48.114;11.694;2022-12-18T05:01:53;-1.50;81.30
16503;DHT22;53067;48.114;11.694;2022-12-18T05:04:21;-1.50;81.30
16503;DHT22;53067;48.114;11.694;2022-12-18T05:06:48;-1.50;81.10
16503;DHT22;53067;48.114;11.694;2022-12-18T05:09:16;-1.50;81.20
16503;DHT22;53067;48.114;11.694;2022-12-18T05:11:43;-1.50;81.30
16503;DHT22;53067;48.114;11.694;2022-12-18T05:14:11;-1.50;81.20
16503;DHT22;53067;48.114;11.694;2022-12-18T05:16:38;-1.50;81.00
16503;DHT22;53067;48.114;11.694;2022-12-18T05:19:06;-1.50;81.00
16503;DHT22;53067;48.114;11.694;2022-12-18T05:21:33;-1.50;81.10
16503;DHT22;53067;48.114;11.694;2022-12-18T05:24:01;-1.40;80.90
16503;DHT22;53067;48.114;11.694;2022-12-18T05:26:28;-1.40;80.80
16503;DHT22;53067;48.114;11.694;2022-12-18T05:28:56;-1.40;80.80
16503;DHT22;53067;48.114;11.694;2022-12-18T05:31:23;-1.40;80.80
16503;DHT22;53067;48.114;11.694;2022-12-18T05:33:51;-1.40;80.60
16503;DHT22;53067;48.114;11.694;2022-12-18T05:36:18;-1.40;80.30
16503;DHT22;53067;48.114;11.694;2022-12-18T05:38:46;-1.30;80.40
16503;DHT22;53067;48.114;11.694;2022-12-18T05:41:13;-1.30;80.20
16503;DHT22;53067;48.114;11.694;2022-12-18T05:43:41;-1.40;80.20
16503;DHT22;53067;48.114;11.694;2022-12-18T05:46:14;-1.40;80.20
16503;DHT22;53067;48.114;11.694;2022-12-18T05:48:43;-1.40;80.30
16503;DHT22;53067;48.114;11.694;2022-12-18T05:51:16;-1.40;80.20
16503;DHT22;53067;48.114;11.694;2022-12-18T05:53:45;-1.40;80.10
16503;DHT22;53067;48.114;11.694;2022-12-18T05:56:19;-1.40;80.20
16503;DHT22;53067;48.114;11.694;2022-12-18T05:58:47;-1.50;79.80
16503;DHT22;53067;48.114;11.694;2022-12-18T06:01:18;-1.60;80.10
16503;DHT22;53067;48.114;11.694;2022-12-18T06:03:46;-1.60;80.20
16503;DHT22;53067;48.114;11.694;2022-12-18T06:08:43;-1.70;80.30
16503;DHT22;53067;48.114;11.694;2022-12-18T06:11:11;-1.60;80.50
16503;DHT22;53067;48.114;11.694;2022-12-18T06:13:38;-1.60;80.70
16503;DHT22;53067;48.114;11.694;2022-12-18T06:16:07;-1.50;80.70
16503;DHT22;53067;48.114;11.694;2022-12-18T06:18:34;-1.50;80.60
16503;DHT22;53067;48.114;11.694;2022-12-18T06:21:02;-1.50;80.80
16503;DHT22;53067;48.114;11.694;2022-12-18T06:23:30;-1.50;80.80
16503;DHT22;53067;48.114;11.694;2022-12-18T06:25:57;-1.50;80.70
16503;DHT22;53067;48.114;11.694;2022-12-18T06:28:25;-1.50;80.40
16503;DHT22;53067;48.114;11.694;2022-12-18T06:30:52;-1.50;80.20
16503;DHT22;53067;48.114;11.694;2022-12-18T06:33:20;-1.50;80.20
16503;DHT22;53067;48.114;11.694;2022-12-18T06:35:47;-1.50;80.30
16503;DHT22;53067;48.114;11.694;2022-12-18T06:38:15;-1.60;80.30
16503;DHT22;53067;48.114;11.694;2022-12-18T06:40:42;-1.50;80.40
16503;DHT22;53067;48.114;11.694;2022-12-18T06:43:10;-1.60;80.20
16503;DHT22;53067;48.114;11.694;2022-12-18T06:45:37;-1.50;80.30
16503;DHT22;53067;48.114;11.694;2022-12-18T06:48:05;-1.50;80.20
16503;DHT22;53067;48.114;11.694;2022-12-18T06:50:32;-1.60;80.10
16503;DHT22;53067;48.114;11.694;2022-12-18T06:53:00;-1.60;80.20
16503;DHT22;53067;48.114;11.694;2022-12-18T06:55:27;-1.60;80.10
16503;DHT22;53067;48.114;11.694;2022-12-18T06:57:55;-1.60;80.00
16503;DHT22;53067;48.114;11.694;2022-12-18T07:00:23;-1.50;80.00
16503;DHT22;53067;48.114;11.694;2022-12-18T07:02:51;-1.60;79.80
16503;DHT22;53067;48.114;11.694;2022-12-18T07:05:18;-1.60;80.00
16503;DHT22;53067;48.114;11.694;2022-12-18T07:07:46;-1.70;79.80
16503;DHT22;53067;48.114;11.694;2022-12-18T07:10:13;-1.70;80.10
16503;DHT22;53067;48.114;11.694;2022-12-18T07:12:41;-1.70;80.30
16503;DHT22;53067;48.114;11.694;2022-12-18T07:15:11;-1.70;80.40
16503;DHT22;53067;48.114;11.694;2022-12-18T07:17:39;-1.70;80.40
16503;DHT22;53067;48.114;11.694;2022-12-18T07:20:07;-1.60;80.20
16503;DHT22;53067;48.114;11.694;2022-12-18T07:22:35;-1.60;80.30
16503;DHT22;53067;48.114;11.694;2022-12-18T07:25:02;-1.60;80.30
16503;DHT22;53067;48.114;11.694;2022-12-18T07:27:30;-1.60;80.30
16503;DHT22;53067;48.114;11.694;2022-12-18T07:29:57;-1.60;80.40
16503;DHT22;53067;48.114;11.694;2022-12-18T07:32:25;-1.60;80.10
16503;DHT22;53067;48.114;11.694;2022-12-18T07:34:52;-1.60;80.10
16503;DHT22;53067;48.114;11.694;2022-12-18T07:37:20;-1.60;79.80
16503;DHT22;53067;48.114;11.694;2022-12-18T07:39:47;-1.60;79.70
16503;DHT22;53067;48.114;11.694;2022-12-18T07:42:15;-1.60;79.50
16503;DHT22;53067;48.114;11.694;2022-12-18T07:44:58;-1.70;79.30
16503;DHT22;53067;48.114;11.694;2022-12-18T07:47:29;-1.70;79.40
16503;DHT22;53067;48.114;11.694;2022-12-18T07:49:57;-1.70;79.50
16503;DHT22;53067;48.114;11.694;2022-12-18T07:52:24;-1.70;79.60
16503;DHT22;53067;48.114;11.694;2022-12-18T07:54:52;-1.70;79.50
16503;DHT22;53067;48.114;11.694;2022-12-18T07:57:20;-1.70;80.20
16503;DHT22;53067;48.114;11.694;2022-12-18T07:59:47;-1.80;79.40
16503;DHT22;53067;48.114;11.694;2022-12-18T08:02:15;-1.80;79.70
16503;DHT22;53067;48.114;11.694;2022-12-18T08:04:42;-1.80;79.90
16503;DHT22;53067;48.114;11.694;2022-12-18T08:07:10;-1.70;80.20
16503;DHT22;53067;48.114;11.694;2022-12-18T08:09:37;-1.70;80.00
16503;DHT22;53067;48.114;11.694;2022-12-18T08:12:05;-1.70;79.60
16503;DHT22;53067;48.114;11.694;2022-12-18T08:14:33;-1.60;79.70
16503;DHT22;53067;48.114;11.694;2022-12-18T08:17:00;-1.60;79.30
16503;DHT22;53067;48.114;11.694;2022-12-18T08:19:28;-1.60;79.10
16503;DHT22;53067;48.114;11.694;2022-12-18T08:21:55;-1.60;78.90
16503;DHT22;53067;48.114;11.694;2022-12-18T08:24:23;-1.70;79.00
16503;DHT22;53067;48.114;11.694;2022-12-18T08:26:50;-1.70;79.40
16503;DHT22;53067;48.114;11.694;2022-12-18T08:29:18;-1.70;79.20
16503;DHT22;53067;48.114;11.694;2022-12-18T08:31:46;-1.70;79.10
16503;DHT22;53067;48.114;11.694;2022-12-18T08:34:13;-1.70;79.30
16503;DHT22;53067;48.114;11.694;2022-12-18T08:36:41;-1.70;78.90
16503;DHT22;53067;48.114;11.694;2022-12-18T08:39:08;-1.70;79.30
16503;DHT22;53067;48.114;11.694;2022-12-18T08:41:36;-1.70;79.60
16503;DHT22;53067;48.114;11.694;2022-12-18T08:44:03;-1.70;79.50
16503;DHT22;53067;48.114;11.694;2022-12-18T08:46:49;-1.60;79.50
16503;DHT22;53067;48.114;11.694;2022-12-18T08:49:16;-1.70;78.70
16503;DHT22;53067;48.114;11.694;2022-12-18T08:51:44;-1.80;78.70
16503;DHT22;53067;48.114;11.694;2022-12-18T08:54:12;-1.80;78.90
16503;DHT22;53067;48.114;11.694;2022-12-18T08:56:40;-1.80;79.00
16503;DHT22;53067;48.114;11.694;2022-12-18T08:59:09;-1.80;79.00
16503;DHT22;53067;48.114;11.694;2022-12-18T09:01:36;-1.80;78.90
16503;DHT22;53067;48.114;11.694;2022-12-18T09:04:04;-1.80;79.00
16503;DHT22;53067;48.114;11.694;2022-12-18T09:06:32;-1.80;78.80
16503;DHT22;53067;48.114;11.694;2022-12-18T09:08:59;-1.70;79.00
16503;DHT22;53067;48.114;11.694;2022-12-18T09:11:28;-1.70;78.90
16503;DHT22;53067;48.114;11.694;2022-12-18T09:13:56;-1.70;78.70
16503;DHT22;53067;48.114;11.694;2022-12-18T09:16:25;-1.70;78.60
16503;DHT22;53067;48.114;11.694;2022-12-18T09:18:57;-1.70;78.90
16503;DHT22;53067;48.114;11.694;2022-12-18T09:21:30;-1.60;78.80
16503;DHT22;53067;48.114;11.694;2022-12-18T09:24:00;-1.60;78.70
16503;DHT22;53067;48.114;11.694;2022-12-18T09:26:28;-1.50;78.60
16503;DHT22;53067;48.114;11.694;2022-12-18T09:28:55;-1.60;78.30
16503;DHT22;53067;48.114;11.694;2022-12-18T09:31:24;-1.50;78.20
16503;DHT22;53067;48.114;11.694;2022-12-18T09:33:54;-1.50;78.10
16503;DHT22;53067;48.114;11.694;2022-12-18T09:36:22;-1.50;77.90
16503;DHT22;53067;48.114;11.694;2022-12-18T09:38:49;-1.50;77.60
16503;DHT22;53067;48.114;11.694;2022-12-18T09:41:47;-1.60;77.50
16503;DHT22;53067;48.114;11.694;2022-12-18T09:44:37;-1.50;77.80
16503;DHT22;53067;48.114;11.694;2022-12-18T09:47:28;-1.60;77.90
16503;DHT22;53067;48.114;11.694;2022-12-18T09:49:58;-1.50;78.30
16503;DHT22;53067;48.114;11.694;2022-12-18T09:52:35;-1.50;77.80
16503;DHT22;53067;48.114;11.694;2022-12-18T09:55:17;-1.50;77.90
16503;DHT22;53067;48.114;11.694;2022-12-18T09:57:42;-1.50;77.70
16503;DHT22;53067;48.114;11.694;2022-12-18T10:00:19;-1.50;77.70
16503;DHT22;53067;48.114;11.694;2022-12-18T10:02:47;-1.50;77.80
16503;DHT22;53067;48.114;11.694;2022-12-18T10:05:20;-1.50;77.60
16503;DHT22;53067;48.114;11.694;2022-12-18T10:08:00;-1.50;77.70
16503;DHT22;53067;48.114;11.694;2022-12-18T10:10:32;-1.50;77.50
16503;DHT22;53067;48.114;11.694;2022-12-18T10:13:24;-1.50;77.30
16503;DHT22;53067;48.114;11.694;2022-12-18T10:21:23;-1.40;77.50
16503;DHT22;53067;48.114;11.694;2022-12-18T10:24:26;-1.50;77.20
16503;DHT22;53067;48.114;11.694;2022-12-18T10:26:54;-1.40;77.30
16503;DHT22;53067;48.114;11.694;2022-12-18T10:29:25;-1.50;78.00
16503;DHT22;53067;48.114;11.694;2022-12-18T10:31:52;-1.50;77.60
16503;DHT22;53067;48.114;11.694;2022-12-18T10:34:19;-1.50;77.50
16503;DHT22;53067;48.114;11.694;2022-12-18T10:36:48;-1.50;77.50
16503;DHT22;53067;48.114;11.694;2022-12-18T10:39:21;-1.50;77.50
16503;DHT22;53067;48.114;11.694;2022-12-18T10:42:16;-1.40;77.20
16503;DHT22;53067;48.114;11.694;2022-12-18T10:44:40;-1.40;77.50
16503;DHT22;53067;48.114;11.694;2022-12-18T10:47:17;-1.40;77.50
16503;DHT22;53067;48.114;11.694;2022-12-18T10:49:50;-1.40;77.10
16503;DHT22;53067;48.114;11.694;2022-12-18T10:52:23;-1.40;77.30
16503;DHT22;53067;48.114;11.694;2022-12-18T10:55:01;-1.30;77.60
16503;DHT22;53067;48.114;11.694;2022-12-18T10:57:34;-1.30;77.10
16503;DHT22;53067;48.114;11.694;2022-12-18T11:00:48;-1.30;77.30
16503;DHT22;53067;48.114;11.694;2022-12-18T11:02:38;-1.30;77.40
16503;DHT22;53067;48.114;11.694;2022-12-18T11:05:28;-1.20;77.20
16503;DHT22;53067;48.114;11.694;2022-12-18T11:07:52;-1.20;76.90
16503;DHT22;53067;48.114;11.694;2022-12-18T11:10:32;-1.20;77.10
16503;DHT22;53067;48.114;11.694;2022-12-18T11:12:52;-1.20;76.90
16503;DHT22;53067;48.114;11.694;2022-12-18T11:15:27;-1.20;76.70
16503;DHT22;53067;48.114;11.694;2022-12-18T11:17:56;-1.20;77.70
16503;DHT22;53067;48.114;11.694;2022-12-18T11:20:32;-1.10;77.10
16503;DHT22;53067;48.114;11.694;2022-12-18T11:23:05;-1.10;76.80
16503;DHT22;53067;48.114;11.694;2022-12-18T11:25:34;-1.10;76.70
16503;DHT22;53067;48.114;11.694;2022-12-18T11:30:49;-1.10;76.40
16503;DHT22;53067;48.114;11.694;2022-12-18T11:33:22;-1.10;76.40
16503;DHT22;53067;48.114;11.694;2022-12-18T11:35:58;-1.10;76.50
16503;DHT22;53067;48.114;11.694;2022-12-18T11:38:31;-1.10;76.80
16503;DHT22;53067;48.114;11.694;2022-12-18T11:41:32;-1.10;76.80
16503;DHT22;53067;48.114;11.694;2022-12-18T11:46:18;-1.00;76.40
16503;DHT22;53067;48.114;11.694;2022-12-18T11:49:01;-1.00;77.10
16503;DHT22;53067;48.114;11.694;2022-12-18T11:54:15;-1.10;76.30
16503;DHT22;53067;48.114;11.694;2022-12-18T11:56:46;-1.10;76.50
16503;DHT22;53067;48.114;11.694;2022-12-18T11:59:22;-1.10;76.40
16503;DHT22;53067;48.114;11.694;2022-12-18T12:04:40;-1.10;76.60
16503;DHT22;53067;48.114;11.694;2022-12-18T12:08:15;-1.00;76.60
16503;DHT22;53067;48.114;11.694;2022-12-18T12:14:57;-1.00;76.90
16503;DHT22;53067;48.114;11.694;2022-12-18T12:17:45;-1.00;76.30
16503;DHT22;53067;48.114;11.694;2022-12-18T12:23:20;-1.00;76.80
16503;DHT22;53067;48.114;11.694;2022-12-18T12:25:52;-0.90;76.80
16503;DHT22;53067;48.114;11.694;2022-12-18T12:31:03;-0.90;77.10
16503;DHT22;53067;48.114;11.694;2022-12-18T12:33:40;-0.90;76.80
16503;DHT22;53067;48.114;11.694;2022-12-18T12:36:17;-0.90;76.50
16503;DHT22;53067;48.114;11.694;2022-12-18T12:38:49;-0.90;76.60
16503;DHT22;53067;48.114;11.694;2022-12-18T12:41:17;-0.80;76.70
16503;DHT22;53067;48.114;11.694;2022-12-18T12:44:07;-0.90;76.30
16503;DHT22;53067;48.114;11.694;2022-12-18T12:46:37;-0.90;76.30
16503;DHT22;53067;48.114;11.694;2022-12-18T12:49:11;-1.00;76.80
16503;DHT22;53067;48.114;11.694;2022-12-18T12:51:40;-1.10;77.10
16503;DHT22;53067;48.114;11.694;2022-12-18T12:54:19;-1.10;77.10
16503;DHT22;53067;48.114;11.694;2022-12-18T12:56:52;-1.10;77.00
16503;DHT22;53067;48.114;11.694;2022-12-18T13:10:31;-1.20;77.30
16503;DHT22;53067;48.114;11.694;2022-12-18T13:13:15;-1.10;77.50
16503;DHT22;53067;48.114;11.694;2022-12-18T13:15:45;-1.10;77.50
16503;DHT22;53067;48.114;11.694;2022-12-18T13:18:21;-1.10;77.50
16503;DHT22;53067;48.114;11.694;2022-12-18T13:23:31;-1.10;80.10
16503;DHT22;53067;48.114;11.694;2022-12-18T13:28:52;-0.90;79.60
16503;DHT22;53067;48.114;11.694;2022-12-18T13:34:22;-0.60;78.80
16503;DHT22;53067;48.114;11.694;2022-12-18T13:36:51;-0.60;78.80
16503;DHT22;53067;48.114;11.694;2022-12-18T13:39:24;-0.50;77.40
16503;DHT22;53067;48.114;11.694;2022-12-18T13:44:40;-0.50;77.90
16503;DHT22;53067;48.114;11.694;2022-12-18T13:47:31;-0.50;78.40
16503;DHT22;53067;48.114;11.694;2022-12-18T13:49:57;-0.60;78.50
16503;DHT22;53067;48.114;11.694;2022-12-18T13:52:28;-0.60;78.00
16503;DHT22;53067;48.114;11.694;2022-12-18T13:54:57;-0.50;79.50
16503;DHT22;53067;48.114;11.694;2022-12-18T13:57:29;-0.50;78.90
16503;DHT22;53067;48.114;11.694;2022-12-18T13:59:58;-0.40;78.80
16503;DHT22;53067;48.114;11.694;2022-12-18T14:02:28;-0.40;79.40
16503;DHT22;53067;48.114;11.694;2022-12-18T14:04:56;-0.30;79.90
16503;DHT22;53067;48.114;11.694;2022-12-18T14:07:26;-0.30;80.20
16503;DHT22;53067;48.114;11.694;2022-12-18T14:09:56;-0.30;78.90
16503;DHT22;53067;48.114;11.694;2022-12-18T14:12:26;-0.50;77.90
16503;DHT22;53067;48.114;11.694;2022-12-18T14:18:15;-0.50;79.70
16503;DHT22;53067;48.114;11.694;2022-12-18T14:20:31;-0.40;79.70
16503;DHT22;53067;48.114;11.694;2022-12-18T14:22:59;-0.50;77.30
16503;DHT22;53067;48.114;11.694;2022-12-18T14:25:28;-0.80;77.40
16503;DHT22;53067;48.114;11.694;2022-12-18T14:28:13;-1.00;79.40
16503;DHT22;53067;48.114;11.694;2022-12-18T14:30:43;-1.00;79.30
16503;DHT22;53067;48.114;11.694;2022-12-18T14:33:14;-1.00;79.40
16503;DHT22;53067;48.114;11.694;2022-12-18T14:38:40;-1.00;80.50
16503;DHT22;53067;48.114;11.694;2022-12-18T14:41:13;-1.00;81.20
16503;DHT22;53067;48.114;11.694;2022-12-18T14:43:43;-1.00;81.30
16503;DHT22;53067;48.114;11.694;2022-12-18T14:46:32;-1.00;80.50
16503;DHT22;53067;48.114;11.694;2022-12-18T14:49:21;-1.20;80.20
16503;DHT22;53067;48.114;11.694;2022-12-18T14:51:54;-1.20;81.00
16503;DHT22;53067;48.114;11.694;2022-12-18T14:54:23;-1.10;82.10
16503;DHT22;53067;48.114;11.694;2022-12-18T14:59:26;-1.10;81.80
16503;DHT22;53067;48.114;11.694;2022-12-18T15:01:57;-1.00;81.50
16503;DHT22;53067;48.114;11.694;2022-12-18T15:04:27;-1.00;81.20
16503;DHT22;53067;48.114;11.694;2022-12-18T15:07:20;-0.90;82.00
16503;DHT22;53067;48.114;11.694;2022-12-18T15:10:11;-0.80;84.00
16503;DHT22;53067;48.114;11.694;2022-12-18T15:12:45;-0.80;82.80
16503;DHT22;53067;48.114;11.694;2022-12-18T15:18:17;-0.80;80.40
16503;DHT22;53067;48.114;11.694;2022-12-18T15:20:58;-0.90;82.70
16503;DHT22;53067;48.114;11.694;2022-12-18T15:26:18;-0.80;82.90
16503;DHT22;53067;48.114;11.694;2022-12-18T15:28:48;-0.70;84.50
16503;DHT22;53067;48.114;11.694;2022-12-18T15:36:25;-0.60;83.30
16503;DHT22;53067;48.114;11.694;2022-12-18T15:38:57;-0.70;80.70
16503;DHT22;53067;48.114;11.694;2022-12-18T15:41:25;-0.90;80.90
16503;DHT22;53067;48.114;11.694;2022-12-18T15:43:53;-0.80;83.50
16503;DHT22;53067;48.114;11.694;2022-12-18T15:46:25;-0.80;82.00
16503;DHT22;53067;48.114;11.694;2022-12-18T15:48:54;-0.70;82.00
16503;DHT22;53067;48.114;11.694;2022-12-18T15:51:34;-0.80;80.20
16503;DHT22;53067;48.114;11.694;2022-12-18T15:54:04;-0.90;80.70
16503;DHT22;53067;48.114;11.694;2022-12-18T15:56:32;-0.90;81.60
16503;DHT22;53067;48.114;11.694;2022-12-18T15:59:19;-0.90;83.00
16503;DHT22;53067;48.114;11.694;2022-12-18T16:01:49;-0.80;82.80
16503;DHT22;53067;48.114;11.694;2022-12-18T16:04:20;-0.80;82.30
16503;DHT22;53067;48.114;11.694;2022-12-18T16:06:48;-0.80;82.80
16503;DHT22;53067;48.114;11.694;2022-12-18T16:09:18;-0.70;82.80
16503;DHT22;53067;48.114;11.694;2022-12-18T16:11:45;-0.60;82.00
16503;DHT22;53067;48.114;11.694;2022-12-18T16:14:26;-0.60;82.70
16503;DHT22;53067;48.114;11.694;2022-12-18T16:17:00;-0.50;81.80
16503;DHT22;53067;48.114;11.694;2022-12-18T16:19:25;-0.50;79.90
16503;DHT22;53067;48.114;11.694;2022-12-18T16:22:05;-0.80;78.80
16503;DHT22;53067;48.114;11.694;2022-12-18T16:24:33;-0.90;78.60
16503;DHT22;53067;48.114;11.694;2022-12-18T16:27:02;-1.00;80.30
16503;DHT22;53067;48.114;11.694;2022-12-18T16:29:30;-1.00;82.40
16503;DHT22;53067;48.114;11.694;2022-12-18T16:32:00;-0.80;82.60
16503;DHT22;53067;48.114;11.694;2022-12-18T16:34:32;-0.70;82.80
16503;DHT22;53067;48.114;11.694;2022-12-18T16:37:03;-0.70;80.60
16503;DHT22;53067;48.114;11.694;2022-12-18T16:39:32;-0.70;78.80
16503;DHT22;53067;48.114;11.694;2022-12-18T16:42:02;-0.80;78.80
16503;DHT22;53067;48.114;11.694;2022-12-18T16:44:30;-0.90;79.80
16503;DHT22;53067;48.114;11.694;2022-12-18T16:46:57;-0.90;78.60
16503;DHT22;53067;48.114;11.694;2022-12-18T16:49:27;-1.00;78.70
16503;DHT22;53067;48.114;11.694;2022-12-18T16:51:55;-1.00;79.00
16503;DHT22;53067;48.114;11.694;2022-12-18T16:54:23;-1.10;79.10
16503;DHT22;53067;48.114;11.694;2022-12-18T16:56:51;-1.00;80.40
16503;DHT22;53067;48.114;11.694;2022-12-18T16:59:18;-1.00;81.50
16503;DHT22;53067;48.114;11.694;2022-12-18T17:01:46;-0.90;80.90
16503;DHT22;53067;48.114;11.694;2022-12-18T17:04:14;-0.90;78.40
16503;DHT22;53067;48.114;11.694;2022-12-18T17:06:45;-0.90;78.10
16503;DHT22;53067;48.114;11.694;2022-12-18T17:09:15;-0.90;77.80
16503;DHT22;53067;48.114;11.694;2022-12-18T17:11:42;-1.00;77.50